Time;durP1;ratioP1;P1;durP2;ratioP2;P2;SDS_P1;SDS_P2;PMS_P1;PMS_P2;Temp;Humidity;BMP_temperature;BMP_pressure;BME280_temperature;BME280_humidity;BME280_pressure;Samples;Min_cycle;Max_cycle;Signal;HPM_P1;HPM_P2
2022/01/12 00:00:25;;;;;;;17.35;9.40;;;6.80;68.90;;;;;;5049604;28;20084;-79
2022/01/12 00:02:52;;;;;;;17.63;8.93;;;6.80;69.30;;;;;;5049452;28;20115;-79
2022/01/12 00:05:19;;;;;;;16.15;9.10;;;6.70;69.70;;;;;;5049537;28;20399;-79
2022/01/12 00:07:50;;;;;;;16.10;8.82;;;6.80;69.60;;;;;;5049413;28;20025;-79
2022/01/12 00:10:19;;;;;;;17.77;9.50;;;6.90;69.30;;;;;;5051471;28;20037;-79
2022/01/12 00:12:45;;;;;;;17.13;9.38;;;6.90;69.40;;;;;;5049281;28;20369;-79
2022/01/12 00:15:11;;;;;;;18.70;9.27;;;6.80;69.60;;;;;;5049242;28;20039;-79
2022/01/12 00:17:37;;;;;;;18.13;9.10;;;6.80;69.90;;;;;;5049058;28;20031;-78
2022/01/12 00:20:03;;;;;;;16.48;9.57;;;6.80;70.30;;;;;;5049005;28;20022;-79
2022/01/12 00:22:32;;;;;;;19.40;10.18;;;6.80;70.30;;;;;;5050202;28;20365;-78
2022/01/12 00:33:13;;;;;;;19.08;9.63;;;6.70;70.70;;;;;;5049253;28;20094;-79
2022/01/12 00:35:41;;;;;;;16.50;9.15;;;6.70;70.80;;;;;;5049023;28;20086;-79
2022/01/12 00:38:08;;;;;;;19.17;9.85;;;6.70;71.00;;;;;;5048499;28;20068;-79
2022/01/12 00:40:42;;;;;;;19.20;10.27;;;6.70;70.70;;;;;;5057993;28;20052;-79
2022/01/12 00:43:08;;;;;;;17.20;10.00;;;6.60;70.90;;;;;;5050259;28;20026;-79
2022/01/12 00:45:37;;;;;;;17.98;9.55;;;6.60;71.20;;;;;;5048399;28;20040;-79
2022/01/12 00:48:04;;;;;;;17.52;9.75;;;6.60;71.60;;;;;;5048108;28;20071;-79
2022/01/12 00:50:29;;;;;;;17.73;9.75;;;6.60;71.40;;;;;;5048779;28;20029;-79
2022/01/12 00:52:55;;;;;;;17.45;9.13;;;6.50;71.60;;;;;;5047008;28;20047;-78
2022/01/12 00:55:21;;;;;;;19.48;10.30;;;6.60;71.80;;;;;;5050494;28;20044;-79
2022/01/12 00:57:47;;;;;;;20.20;10.88;;;6.50;71.50;;;;;;5048516;28;20480;-79
2022/01/12 01:00:13;;;;;;;18.42;10.20;;;6.50;71.80;;;;;;5047480;28;20507;-79
2022/01/12 01:02:39;;;;;;;19.50;10.27;;;6.40;72.30;;;;;;5048320;28;20021;-79
2022/01/12 01:05:06;;;;;;;18.25;10.15;;;6.40;72.40;;;;;;5047872;28;20071;-79
2022/01/12 01:07:31;;;;;;;20.95;10.65;;;6.40;72.60;;;;;;5049722;28;20021;-79
2022/01/12 01:10:11;;;;;;;19.20;10.98;;;6.40;72.70;;;;;;5048265;28;20033;-79
2022/01/12 01:12:37;;;;;;;18.48;10.13;;;6.40;72.50;;;;;;5047600;28;20029;-79
2022/01/12 01:15:06;;;;;;;20.70;10.57;;;6.50;72.50;;;;;;5047893;28;20054;-79
2022/01/12 01:25:56;;;;;;;18.02;9.95;;;6.30;73.30;;;;;;5043815;28;20036;-79
2022/01/12 01:28:22;;;;;;;19.42;10.48;;;6.30;73.40;;;;;;5050509;28;20064;-79
2022/01/12 01:30:48;;;;;;;19.63;10.45;;;6.30;73.40;;;;;;5050570;28;20068;-79
2022/01/12 01:33:16;;;;;;;19.70;10.82;;;6.30;73.20;;;;;;5051014;28;20044;-79
2022/01/12 01:35:54;;;;;;;17.38;10.48;;;6.20;73.80;;;;;;5051368;28;20068;-79
2022/01/12 01:38:20;;;;;;;19.35;11.20;;;6.20;73.70;;;;;;5050683;28;20021;-79
2022/01/12 01:40:46;;;;;;;17.75;10.27;;;6.20;73.70;;;;;;5052031;28;20037;-79
2022/01/12 01:54:02;;;;;;;;;;;6.20;73.70;;;;;;5051339;28;20032;-79
2022/01/12 01:56:27;;;;;;;16.10;9.73;;;6.20;73.60;;;;;;5058397;28;19944;-79
2022/01/12 01:58:53;;;;;;;14.63;9.32;;;6.20;74.00;;;;;;5050779;28;20561;-79
2022/01/12 02:01:19;;;;;;;17.92;10.35;;;6.30;73.60;;;;;;5052896;28;20072;-79
2022/01/12 02:03:45;;;;;;;19.33;10.07;;;6.30;73.80;;;;;;5050385;28;20032;-79
2022/01/12 02:06:11;;;;;;;16.95;9.75;;;6.20;73.90;;;;;;5049826;28;20036;-79
2022/01/12 02:08:37;;;;;;;18.35;10.25;;;6.20;74.00;;;;;;5050407;28;20525;-79
2022/01/12 02:11:03;;;;;;;21.63;10.80;;;6.10;74.10;;;;;;5050717;28;20151;-79
2022/01/12 02:13:29;;;;;;;20.95;10.93;;;6.10;74.10;;;;;;5052661;28;20071;-79
2022/01/12 02:15:56;;;;;;;19.17;10.85;;;6.10;74.50;;;;;;5052442;28;20036;-79
2022/01/12 02:40:20;;;;;;;19.60;10.52;;;5.90;74.80;;;;;;5052843;28;20399;-79
2022/01/12 02:42:50;;;;;;;20.95;10.82;;;5.90;74.80;;;;;;5049713;28;20028;-79
2022/01/12 02:50:47;;;;;;;19.30;11.05;;;5.90;75.40;;;;;;5050126;28;20127;-79
2022/01/12 02:55:59;;;;;;;19.42;11.07;;;5.80;76.00;;;;;;5045387;28;20041;-79
2022/01/12 02:58:24;;;;;;;20.55;11.27;;;5.80;75.80;;;;;;5052548;28;20497;-79
2022/01/12 03:03:34;;;;;;;19.98;10.85;;;5.80;75.80;;;;;;5049563;28;20037;-79
2022/01/12 03:06:01;;;;;;;21.05;11.55;;;5.70;76.00;;;;;;5048724;28;20028;-80
2022/01/12 03:08:28;;;;;;;22.02;11.07;;;5.80;76.00;;;;;;5049216;28;20549;-79
2022/01/12 03:10:55;;;;;;;20.02;10.60;;;5.80;75.90;;;;;;5058119;28;20029;-80
2022/01/12 03:13:21;;;;;;;20.30;11.20;;;5.70;76.20;;;;;;5052835;28;20561;-79
2022/01/12 03:15:48;;;;;;;23.73;11.07;;;5.70;76.00;;;;;;5049130;28;20043;-79
2022/01/12 03:18:15;;;;;;;18.92;10.38;;;5.60;76.30;;;;;;5048880;28;20037;-79
2022/01/12 03:20:41;;;;;;;20.55;11.70;;;5.60;76.60;;;;;;5048579;28;20025;-79
2022/01/12 03:23:07;;;;;;;19.60;10.35;;;5.60;76.70;;;;;;5049102;28;20032;-79
2022/01/12 03:25:32;;;;;;;21.50;11.57;;;5.60;76.70;;;;;;5051081;28;20017;-79
2022/01/12 03:28:01;;;;;;;18.17;10.65;;;5.60;76.70;;;;;;5049755;28;20033;-79
2022/01/12 03:30:34;;;;;;;17.90;10.48;;;5.60;76.90;;;;;;5047801;28;20033;-78
2022/01/12 03:33:11;;;;;;;20.48;11.05;;;5.50;76.70;;;;;;5048485;28;20025;-78
2022/01/12 03:35:51;;;;;;;20.60;11.50;;;5.50;77.20;;;;;;5040507;28;20059;-79
2022/01/12 03:38:20;;;;;;;19.83;10.60;;;5.50;77.10;;;;;;5041905;28;20040;-79
2022/01/12 03:40:48;;;;;;;18.83;10.63;;;5.60;77.20;;;;;;5049795;28;20041;-79
2022/01/12 03:43:15;;;;;;;18.65;10.38;;;5.50;76.90;;;;;;5051160;28;20021;-79
2022/01/12 03:45:42;;;;;;;19.25;10.52;;;5.50;77.10;;;;;;5048544;28;20032;-78
2022/01/12 03:48:08;;;;;;;20.73;10.63;;;5.50;77.30;;;;;;5050050;28;20044;-79
2022/01/12 03:50:34;;;;;;;19.73;10.48;;;5.40;77.20;;;;;;5048315;28;20041;-79
2022/01/12 03:53:00;;;;;;;22.67;10.82;;;5.40;77.60;;;;;;5047702;28;20056;-79
2022/01/12 03:55:25;;;;;;;21.40;10.68;;;5.40;77.40;;;;;;5051615;28;20029;-79
2022/01/12 03:57:51;;;;;;;20.73;9.77;;;5.40;77.50;;;;;;5048554;28;20020;-79
2022/01/12 04:00:17;;;;;;;21.73;11.23;;;5.40;77.60;;;;;;5048005;28;20904;-79
2022/01/12 04:02:45;;;;;;;18.77;10.98;;;5.40;77.80;;;;;;5048113;28;20048;-79
2022/01/12 04:05:26;;;;;;;19.83;11.25;;;5.30;77.80;;;;;;5047780;28;20025;-79
2022/01/12 04:10:36;;;;;;;20.17;11.63;;;5.30;78.50;;;;;;5050441;28;20122;-79
2022/01/12 04:13:03;;;;;;;20.80;11.48;;;5.20;78.50;;;;;;5049039;28;20041;-79
2022/01/12 04:15:28;;;;;;;19.83;10.27;;;5.30;78.60;;;;;;5047883;28;20510;-79
2022/01/12 04:17:54;;;;;;;21.08;11.25;;;5.20;78.50;;;;;;5047478;28;20147;-79
2022/01/12 04:20:20;;;;;;;22.42;11.32;;;5.20;78.40;;;;;;5047974;28;20037;-79
2022/01/12 04:25:30;;;;;;;19.83;11.00;;;5.30;78.40;;;;;;5048868;28;20028;-79
2022/01/12 04:27:55;;;;;;;20.08;11.57;;;5.30;78.40;;;;;;5050109;28;20022;-79
2022/01/12 04:30:21;;;;;;;21.65;11.10;;;5.30;78.40;;;;;;5047292;28;20511;-79
2022/01/12 04:32:47;;;;;;;21.17;11.57;;;5.30;78.50;;;;;;5047653;28;20078;-79
2022/01/12 04:35:15;;;;;;;19.60;12.00;;;5.30;78.60;;;;;;5048092;28;20057;-79
2022/01/12 04:37:41;;;;;;;22.38;11.77;;;5.30;78.60;;;;;;5049552;28;20035;-79
2022/01/12 04:40:08;;;;;;;22.52;12.68;;;5.30;78.20;;;;;;5049491;28;20049;-79
2022/01/12 04:42:35;;;;;;;21.58;12.73;;;5.30;78.20;;;;;;5047518;28;20033;-79
2022/01/12 04:45:15;;;;;;;22.10;12.40;;;5.30;77.90;;;;;;5047731;28;20025;-79
2022/01/12 04:48:00;;;;;;;20.23;12.73;;;5.30;78.00;;;;;;5047619;28;20648;-79
2022/01/12 04:50:29;;;;;;;21.90;11.95;;;5.30;77.70;;;;;;5046255;28;20080;-79
2022/01/12 04:52:55;;;;;;;20.42;11.55;;;5.30;77.50;;;;;;5047668;28;20029;-79
2022/01/12 04:55:21;;;;;;;22.63;11.95;;;5.30;77.50;;;;;;5051269;28;20104;-79
2022/01/12 04:57:47;;;;;;;23.50;12.73;;;5.30;77.30;;;;;;5048030;28;20116;-79
2022/01/12 05:00:16;;;;;;;24.13;12.70;;;5.30;77.30;;;;;;5047293;28;20049;-79
2022/01/12 05:08:24;;;;;;;22.75;13.10;;;5.20;77.50;;;;;;5053801;28;20130;-79
2022/01/12 05:13:36;;;;;;;25.27;13.65;;;5.20;77.60;;;;;;5051964;28;20114;-79
2022/01/12 05:16:02;;;;;;;23.92;13.77;;;5.20;77.60;;;;;;5052557;28;20403;-79
2022/01/12 05:18:32;;;;;;;24.13;12.85;;;5.20;77.50;;;;;;5053151;28;20025;-79
2022/01/12 05:20:58;;;;;;;21.50;12.88;;;5.20;77.60;;;;;;5051923;28;20557;-79
2022/01/12 05:23:25;;;;;;;24.38;13.10;;;5.30;77.30;;;;;;5052833;28;20111;-79
2022/01/12 05:25:52;;;;;;;26.60;14.10;;;5.30;77.10;;;;;;5052140;28;20040;-79
2022/01/12 05:28:19;;;;;;;23.15;12.57;;;5.30;77.10;;;;;;5054280;28;20025;-79
2022/01/12 05:30:45;;;;;;;24.88;13.80;;;5.30;76.80;;;;;;5051053;28;20025;-79
2022/01/12 05:33:11;;;;;;;23.63;14.02;;;5.20;77.20;;;;;;5051279;28;20054;-79
2022/01/12 05:35:37;;;;;;;23.23;13.85;;;5.30;77.30;;;;;;5051259;28;20031;-79
2022/01/12 05:38:05;;;;;;;24.50;13.52;;;5.30;76.70;;;;;;5051264;28;20029;-79
2022/01/12 05:40:32;;;;;;;26.92;15.27;;;5.30;76.70;;;;;;5053949;28;20014;-79
2022/01/12 05:43:01;;;;;;;23.48;13.82;;;5.20;76.70;;;;;;5052003;28;20100;-79
2022/01/12 05:45:29;;;;;;;24.83;13.48;;;5.20;77.20;;;;;;5050461;28;20058;-78
2022/01/12 05:50:22;;;;;;;25.00;14.20;;;5.30;76.90;;;;;;5051091;28;20044;-79
2022/01/12 05:52:48;;;;;;;24.73;13.50;;;5.30;76.90;;;;;;5053033;28;20053;-78
2022/01/12 05:55:14;;;;;;;25.60;14.23;;;5.30;76.80;;;;;;5054179;28;20518;-79
2022/01/12 05:57:41;;;;;;;25.45;13.77;;;5.30;76.60;;;;;;5050903;28;20554;-79
2022/01/12 06:00:11;;;;;;;26.33;14.25;;;5.30;76.70;;;;;;5049887;28;20044;-78
2022/01/12 06:02:37;;;;;;;26.13;15.00;;;5.30;77.00;;;;;;5050143;28;20039;-78
2022/01/12 06:05:04;;;;;;;26.80;14.95;;;5.30;77.00;;;;;;5050619;28;20017;-80
2022/01/12 06:07:30;;;;;;;27.10;14.32;;;5.30;77.00;;;;;;5053067;28;20032;-82
2022/01/12 06:09:55;;;;;;;30.45;15.75;;;5.20;77.20;;;;;;5051169;28;20470;-82
2022/01/12 06:12:21;;;;;;;25.35;14.55;;;5.30;77.30;;;;;;5050089;28;20107;-83
2022/01/12 06:14:47;;;;;;;24.15;13.80;;;5.30;76.90;;;;;;5048920;28;20472;-82
2022/01/12 06:17:13;;;;;;;32.17;14.52;;;5.40;76.50;;;;;;5048649;28;20029;-81
2022/01/12 06:19:39;;;;;;;27.42;14.05;;;5.40;76.40;;;;;;5052673;28;20087;-81
2022/01/12 06:22:06;;;;;;;25.02;14.00;;;5.30;76.50;;;;;;5052101;28;20041;-82
2022/01/12 06:24:32;;;;;;;24.63;14.88;;;5.30;77.20;;;;;;5051887;28;20017;-82
2022/01/12 06:26:58;;;;;;;30.52;15.32;;;5.30;76.30;;;;;;5051885;28;20565;-82
2022/01/12 06:29:39;;;;;;;29.88;15.55;;;5.30;76.70;;;;;;5052371;28;20025;-82
2022/01/12 06:32:07;;;;;;;26.25;14.80;;;5.30;76.70;;;;;;5044555;28;20028;-82
2022/01/12 06:34:32;;;;;;;26.55;14.88;;;5.20;76.60;;;;;;5051899;28;20024;-80
2022/01/12 06:36:58;;;;;;;26.23;15.38;;;5.20;76.50;;;;;;5052161;28;20032;-81
2022/01/12 06:39:25;;;;;;;26.08;14.88;;;5.20;76.10;;;;;;5051303;28;20032;-81
2022/01/12 06:41:52;;;;;;;27.90;15.75;;;5.20;76.30;;;;;;5050759;28;20052;-81
2022/01/12 06:44:22;;;;;;;26.95;14.90;;;5.20;76.20;;;;;;5051553;28;20031;-81
2022/01/12 06:46:51;;;;;;;24.40;14.07;;;5.20;75.90;;;;;;5051456;28;20036;-81
2022/01/12 06:49:17;;;;;;;29.88;16.33;;;5.20;76.20;;;;;;5052931;28;20033;-83
2022/01/12 06:51:45;;;;;;;26.33;15.57;;;5.30;76.00;;;;;;5051319;28;20369;-89
2022/01/12 06:54:12;;;;;;;27.42;15.52;;;5.20;75.70;;;;;;5050891;28;20052;-81
2022/01/12 06:56:37;;;;;;;27.08;15.23;;;5.30;75.70;;;;;;5050374;28;20055;-82
2022/01/12 06:59:04;;;;;;;28.02;15.82;;;5.20;75.60;;;;;;5050873;28;20052;-81
2022/01/12 07:01:30;;;;;;;27.08;14.98;;;5.20;75.50;;;;;;5051553;28;20053;-82
2022/01/12 07:03:56;;;;;;;28.92;15.20;;;5.30;75.30;;;;;;5052079;28;20446;-82
2022/01/12 07:06:22;;;;;;;28.45;15.43;;;5.30;75.70;;;;;;5051303;28;20035;-82
2022/01/12 07:08:47;;;;;;;31.92;14.90;;;5.20;75.70;;;;;;5051017;28;20068;-81
2022/01/12 07:11:13;;;;;;;24.50;14.30;;;5.20;75.70;;;;;;5049563;28;20055;-81
2022/01/12 07:13:39;;;;;;;29.65;15.75;;;5.20;75.60;;;;;;5051240;28;20028;-81
2022/01/12 07:16:05;;;;;;;29.92;15.18;;;5.30;75.40;;;;;;5051423;28;20063;-82
2022/01/12 07:18:31;;;;;;;29.90;14.48;;;5.30;75.10;;;;;;5051077;28;20029;-79
2022/01/12 07:20:57;;;;;;;27.77;15.38;;;5.30;75.10;;;;;;5050665;28;20529;-85
2022/01/12 07:23:23;;;;;;;29.95;16.80;;;5.30;75.00;;;;;;5051001;28;20033;-74
2022/01/12 07:25:49;;;;;;;29.08;15.70;;;5.30;75.30;;;;;;5050095;28;20061;-74
2022/01/12 07:28:16;;;;;;;26.30;14.48;;;5.30;75.10;;;;;;5051073;28;20052;-74
2022/01/12 07:30:41;;;;;;;31.45;14.30;;;5.20;74.60;;;;;;5050120;28;20094;-74
2022/01/12 07:33:07;;;;;;;29.92;16.30;;;5.20;75.10;;;;;;5044753;28;20033;-74
2022/01/12 07:35:33;;;;;;;29.98;14.65;;;5.30;75.20;;;;;;5045333;28;20053;-75
2022/01/12 07:37:58;;;;;;;24.60;14.65;;;5.20;75.00;;;;;;5053533;28;20087;-74
2022/01/12 07:40:24;;;;;;;32.92;16.50;;;5.20;74.70;;;;;;5047645;28;20029;-74
2022/01/12 07:42:51;;;;;;;26.88;14.77;;;5.20;74.90;;;;;;5046122;28;20502;-73
2022/01/12 07:45:18;;;;;;;26.40;15.27;;;5.20;74.70;;;;;;5045175;28;20037;-74
2022/01/12 07:47:44;;;;;;;30.25;15.57;;;5.20;74.80;;;;;;5045610;28;20027;-73
2022/01/12 07:50:11;;;;;;;26.10;15.02;;;5.20;74.80;;;;;;5044882;28;20037;-73
2022/01/12 07:52:37;;;;;;;29.90;16.70;;;5.20;74.40;;;;;;5046767;28;20025;-74
2022/01/12 07:55:04;;;;;;;29.40;15.73;;;5.30;74.40;;;;;;5044377;28;20036;-73
2022/01/12 07:57:30;;;;;;;25.92;15.65;;;5.30;74.30;;;;;;5042741;28;20033;-74
2022/01/12 07:59:56;;;;;;;29.13;15.55;;;5.30;74.00;;;;;;5037429;28;20120;-74
2022/01/12 08:02:22;;;;;;;27.98;15.68;;;5.30;74.40;;;;;;5045112;28;20419;-75
2022/01/12 08:04:48;;;;;;;30.73;14.80;;;5.40;73.90;;;;;;5044445;28;20040;-74
2022/01/12 08:07:14;;;;;;;30.00;15.43;;;5.50;73.90;;;;;;5035860;28;20029;-74
2022/01/12 08:09:43;;;;;;;28.90;15.52;;;5.40;73.70;;;;;;5038359;28;20160;-73
2022/01/12 08:12:10;;;;;;;27.42;14.75;;;5.50;73.00;;;;;;5038760;28;20518;-74
2022/01/12 08:14:36;;;;;;;30.77;15.55;;;5.60;72.80;;;;;;5044720;28;20033;-73
2022/01/12 08:17:04;;;;;;;29.77;15.40;;;5.60;72.70;;;;;;5044561;28;20021;-72
2022/01/12 08:19:34;;;;;;;27.23;15.27;;;5.60;72.20;;;;;;5045788;28;20029;-74
2022/01/12 08:22:00;;;;;;;30.73;15.43;;;5.70;72.30;;;;;;5046147;28;20087;-74
2022/01/12 08:24:25;;;;;;;24.38;13.32;;;5.70;72.20;;;;;;5042485;28;20499;-74
2022/01/12 08:26:51;;;;;;;25.90;14.73;;;5.80;71.30;;;;;;5043233;28;20396;-74
2022/01/12 08:29:17;;;;;;;28.13;15.52;;;6.00;71.00;;;;;;5046587;28;20209;-73
2022/01/12 08:31:44;;;;;;;26.92;15.95;;;7.20;68.70;;;;;;5046236;28;20921;-75
2022/01/12 08:34:10;;;;;;;26.48;14.20;;;9.60;62.20;;;;;;5047168;28;20445;-74
2022/01/12 08:36:42;;;;;;;28.70;14.48;;;11.70;55.90;;;;;;5042688;28;20033;-74
2022/01/12 08:39:09;;;;;;;27.80;14.73;;;13.20;52.10;;;;;;5042075;28;20029;-74
2022/01/12 08:41:38;;;;;;;27.73;15.68;;;14.20;49.50;;;;;;5045223;28;20021;-74
2022/01/12 08:44:08;;;;;;;25.77;14.40;;;14.80;48.00;;;;;;5044649;28;20399;-75
2022/01/12 08:46:35;;;;;;;25.58;14.75;;;15.30;47.50;;;;;;5045166;28;20021;-75
2022/01/12 08:49:00;;;;;;;29.75;16.30;;;15.60;46.00;;;;;;5044417;28;20507;-74
2022/01/12 08:51:26;;;;;;;25.73;15.15;;;15.80;45.10;;;;;;5047717;28;20059;-74
2022/01/12 08:53:52;;;;;;;26.80;15.60;;;15.90;44.60;;;;;;5046166;28;20037;-74
2022/01/12 08:56:19;;;;;;;26.70;14.50;;;15.80;44.40;;;;;;5046344;28;20061;-74
2022/01/12 08:58:45;;;;;;;24.00;15.43;;;14.60;46.40;;;;;;5043843;28;20033;-74
2022/01/12 09:01:11;;;;;;;23.50;15.15;;;13.50;48.00;;;;;;5049506;28;20127;-75
2022/01/12 09:03:38;;;;;;;25.33;14.73;;;12.30;50.00;;;;;;5046438;28;20029;-75
2022/01/12 09:06:05;;;;;;;24.52;14.23;;;11.30;53.10;;;;;;5045982;28;20051;-75
2022/01/12 09:08:32;;;;;;;24.95;16.20;;;10.80;54.80;;;;;;5045337;28;20047;-74
2022/01/12 09:10:57;;;;;;;26.77;15.40;;;10.10;55.60;;;;;;5046339;28;20089;-74
2022/01/12 09:13:23;;;;;;;27.30;14.93;;;10.00;57.10;;;;;;5050416;28;20025;-74
2022/01/12 09:15:49;;;;;;;26.52;15.13;;;9.80;57.00;;;;;;5046313;28;20091;-74
2022/01/12 09:18:15;;;;;;;23.90;14.35;;;9.50;57.40;;;;;;5046158;28;20570;-75
2022/01/12 09:20:41;;;;;;;27.17;15.82;;;9.60;58.00;;;;;;5045844;28;20541;-80
2022/01/12 09:23:07;;;;;;;24.33;15.50;;;9.60;57.70;;;;;;5047173;28;20100;-77
2022/01/12 09:25:35;;;;;;;25.80;15.63;;;9.70;58.20;;;;;;5048779;28;20100;-78
2022/01/12 09:28:02;;;;;;;22.42;14.50;;;9.70;57.90;;;;;;5048777;28;20028;-77
2022/01/12 09:30:29;;;;;;;25.33;15.60;;;9.80;57.80;;;;;;5047212;28;20044;-79
2022/01/12 09:32:55;;;;;;;22.58;14.13;;;9.80;58.30;;;;;;5046283;28;20083;-78
2022/01/12 09:35:21;;;;;;;28.30;16.05;;;9.90;57.60;;;;;;5046186;28;20024;-78
2022/01/12 09:37:47;;;;;;;30.35;15.68;;;9.90;57.60;;;;;;5047291;28;20446;-78
2022/01/12 09:40:13;;;;;;;27.27;15.02;;;9.90;57.40;;;;;;5049055;28;20021;-78
2022/01/12 09:42:41;;;;;;;28.60;15.90;;;10.00;57.60;;;;;;5046506;28;20033;-78
2022/01/12 09:45:13;;;;;;;24.98;14.57;;;10.10;57.70;;;;;;5046276;28;20029;-78
2022/01/12 09:47:39;;;;;;;28.30;15.02;;;10.00;57.10;;;;;;5045926;28;20057;-79
2022/01/12 09:50:06;;;;;;;27.63;15.10;;;10.20;56.90;;;;;;5045501;28;20061;-78
2022/01/12 09:52:32;;;;;;;27.50;14.77;;;10.20;56.80;;;;;;5051398;28;20025;-78
2022/01/12 09:54:57;;;;;;;25.08;15.38;;;10.20;56.80;;;;;;5051819;28;20029;-78
2022/01/12 09:57:23;;;;;;;28.15;14.93;;;10.30;56.80;;;;;;5048727;28;20395;-78
2022/01/12 09:59:49;;;;;;;29.88;15.75;;;10.40;56.80;;;;;;5049359;28;20111;-78
2022/01/12 10:02:17;;;;;;;29.05;16.45;;;10.50;56.80;;;;;;5050270;28;20056;-77
2022/01/12 10:04:43;;;;;;;24.48;15.25;;;10.60;56.40;;;;;;5050990;28;20518;-78
2022/01/12 10:07:10;;;;;;;25.27;14.88;;;10.70;56.20;;;;;;5050751;28;20045;-77
2022/01/12 10:09:44;;;;;;;35.63;17.50;;;10.70;56.10;;;;;;5045294;28;20029;-78
2022/01/12 10:12:19;;;;;;;31.58;15.30;;;10.70;56.80;;;;;;5043676;28;20033;-78
2022/01/12 10:14:49;;;;;;;26.55;15.07;;;10.70;55.90;;;;;;5046017;28;20534;-79
2022/01/12 10:17:17;;;;;;;27.90;15.57;;;10.80;55.40;;;;;;5046874;28;20082;-78
2022/01/12 10:19:43;;;;;;;24.98;14.80;;;10.90;55.60;;;;;;5044573;28;20025;-77
2022/01/12 10:22:11;;;;;;;30.45;16.08;;;10.80;55.50;;;;;;5044755;28;20040;-77
2022/01/12 10:24:39;;;;;;;30.77;15.68;;;10.80;55.90;;;;;;5042844;28;20028;-77
2022/01/12 10:27:17;;;;;;;29.45;16.15;;;10.80;55.80;;;;;;5043586;28;20064;-77
2022/01/12 10:29:44;;;;;;;27.40;15.70;;;10.80;55.90;;;;;;5039337;28;20071;-78
2022/01/12 10:32:10;;;;;;;30.75;16.65;;;11.00;55.90;;;;;;5048450;28;20033;-77
2022/01/12 10:34:45;;;;;;;29.42;15.30;;;11.00;55.80;;;;;;5045368;28;20172;-77
2022/01/12 10:37:13;;;;;;;27.77;16.08;;;11.00;55.60;;;;;;5045427;28;20017;-78
2022/01/12 10:39:41;;;;;;;27.95;15.43;;;10.90;55.60;;;;;;5046890;28;20025;-78
2022/01/12 10:42:12;;;;;;;34.55;15.90;;;10.90;55.60;;;;;;5044037;28;20021;-77
2022/01/12 10:44:41;;;;;;;28.95;15.52;;;10.80;55.80;;;;;;5045108;28;20116;-77
2022/01/12 10:47:08;;;;;;;29.13;15.82;;;10.90;55.70;;;;;;5049798;28;20029;-79
2022/01/12 10:49:36;;;;;;;30.65;16.83;;;10.80;55.60;;;;;;5047823;28;20564;-79
2022/01/12 10:52:05;;;;;;;27.67;16.23;;;10.80;56.00;;;;;;5050429;28;20441;-79
2022/01/12 10:54:47;;;;;;;29.88;16.02;;;10.90;55.60;;;;;;5044762;28;20108;-78
2022/01/12 10:57:17;;;;;;;26.05;15.32;;;11.00;55.80;;;;;;5047712;28;20017;-78
2022/01/12 10:59:47;;;;;;;27.77;16.45;;;11.00;55.40;;;;;;5040863;28;20037;-78
2022/01/12 11:02:14;;;;;;;28.35;16.33;;;11.20;55.60;;;;;;5048876;28;20029;-78
2022/01/12 11:04:42;;;;;;;30.75;16.02;;;11.20;55.10;;;;;;5038674;28;20491;-78
2022/01/12 11:07:08;;;;;;;28.75;16.83;;;11.10;55.60;;;;;;5049733;28;20028;-77
2022/01/12 11:09:35;;;;;;;30.55;17.58;;;11.20;56.20;;;;;;5048607;28;20158;-77
2022/01/12 11:12:02;;;;;;;30.98;16.88;;;11.30;55.40;;;;;;5044501;28;20025;-78
2022/01/12 11:14:28;;;;;;;31.27;16.40;;;11.40;55.40;;;;;;5046827;28;20526;-78
2022/01/12 11:16:54;;;;;;;29.80;16.45;;;11.50;54.60;;;;;;5042629;28;20033;-78
2022/01/12 11:19:20;;;;;;;27.15;15.73;;;11.40;54.90;;;;;;5051350;28;20029;-78
2022/01/12 11:22:16;;;;;;;27.75;15.27;;;11.50;54.60;;;;;;5050196;28;20024;-81
2022/01/12 11:24:42;;;;;;;28.38;16.38;;;11.50;55.10;;;;;;5046430;28;20407;-79
2022/01/12 11:27:07;;;;;;;29.30;16.02;;;11.80;55.10;;;;;;5049593;28;20032;-79
2022/01/12 11:29:34;;;;;;;28.05;16.23;;;11.90;54.40;;;;;;5047822;28;20407;-78
2022/01/12 11:32:07;;;;;;;31.02;15.73;;;11.80;54.10;;;;;;5047080;28;20021;-79
2022/01/12 11:34:33;;;;;;;27.27;14.82;;;12.00;54.20;;;;;;5050045;28;20029;-73
2022/01/12 11:37:09;;;;;;;27.58;16.63;;;12.00;54.30;;;;;;5049544;28;20031;-78
2022/01/12 11:39:35;;;;;;;27.73;16.52;;;12.20;54.00;;;;;;5047538;28;20037;-79
2022/01/12 11:42:01;;;;;;;26.65;16.58;;;12.30;53.70;;;;;;5048447;28;20025;-84
2022/01/12 11:44:33;;;;;;;31.92;17.58;;;12.50;54.40;;;;;;5048123;28;20052;-89
2022/01/12 11:46:59;;;;;;;28.77;16.23;;;12.70;53.90;;;;;;5048204;28;20029;-87
2022/01/12 11:49:35;;;;;;;29.75;17.00;;;12.90;53.60;;;;;;5052119;28;20107;-86
2022/01/12 11:52:14;;;;;;;30.08;17.13;;;13.00;52.40;;;;;;5050828;28;20029;-87
2022/01/12 11:54:43;;;;;;;31.50;17.58;;;13.10;52.10;;;;;;5049992;28;20033;-87
2022/01/12 11:57:13;;;;;;;26.35;16.60;;;13.00;52.10;;;;;;5045008;28;20057;-87
2022/01/12 12:00:04;;;;;;;28.13;16.13;;;13.10;52.60;;;;;;5047982;28;20115;-87
2022/01/12 12:02:49;;;;;;;26.15;15.25;;;13.30;52.40;;;;;;5044938;28;20032;-88
2022/01/12 12:05:21;;;;;;;28.38;15.75;;;13.40;52.30;;;;;;5045362;28;20056;-86
2022/01/12 12:08:04;;;;;;;28.98;17.05;;;13.30;51.40;;;;;;5041592;28;20056;-86
2022/01/12 12:10:35;;;;;;;29.10;16.40;;;13.40;51.10;;;;;;5041666;28;20037;-87
2022/01/12 12:13:02;;;;;;;26.85;16.25;;;13.50;51.40;;;;;;5043340;28;20021;-87
2022/01/12 12:15:28;;;;;;;27.95;16.40;;;13.60;51.20;;;;;;5049761;28;20032;-87
2022/01/12 12:17:58;;;;;;;28.50;16.95;;;13.80;50.50;;;;;;5047329;28;20084;-86
2022/01/12 12:20:24;;;;;;;25.38;15.50;;;14.00;50.30;;;;;;5047590;28;20483;-87
2022/01/12 12:22:50;;;;;;;29.75;17.13;;;14.20;49.80;;;;;;5050385;28;20028;-88
2022/01/12 12:25:18;;;;;;;29.02;16.70;;;14.50;49.30;;;;;;5044838;28;20388;-86
2022/01/12 12:27:49;;;;;;;27.63;14.55;;;14.80;48.90;;;;;;5043842;28;20022;-86
2022/01/12 12:30:17;;;;;;;25.63;16.23;;;15.50;48.40;;;;;;5048408;28;20099;-86
2022/01/12 12:32:52;;;;;;;22.92;14.32;;;17.40;47.30;;;;;;5051454;28;20044;-86
2022/01/12 12:35:19;;;;;;;25.52;14.70;;;19.50;43.60;;;;;;5050647;28;20041;-87
2022/01/12 12:37:49;;;;;;;24.05;14.32;;;21.40;41.10;;;;;;5043435;28;20021;-87
2022/01/12 12:40:25;;;;;;;26.17;14.85;;;22.50;38.60;;;;;;5051737;28;20040;-87
2022/01/12 12:43:03;;;;;;;26.23;14.75;;;23.30;38.00;;;;;;5048951;28;20586;-87
2022/01/12 12:46:02;;;;;;;26.27;14.55;;;24.10;36.80;;;;;;5048532;28;20067;-87
2022/01/12 12:48:34;;;;;;;22.63;13.60;;;24.10;35.90;;;;;;5049814;28;20048;-86
2022/01/12 12:51:09;;;;;;;25.17;15.18;;;24.80;35.60;;;;;;5050477;28;20036;-89
2022/01/12 12:53:37;;;;;;;26.23;14.90;;;24.60;35.10;;;;;;5050974;28;20096;-87
2022/01/12 12:56:06;;;;;;;22.08;14.20;;;22.70;36.00;;;;;;5050093;28;20025;-87
2022/01/12 12:58:32;;;;;;;27.95;16.67;;;21.20;38.00;;;;;;5050979;28;20036;-86
2022/01/12 13:01:13;;;;;;;29.33;16.33;;;22.90;37.90;;;;;;5049585;28;20045;-88
2022/01/12 13:03:39;;;;;;;25.50;14.95;;;24.20;36.30;;;;;;5048307;28;20110;-88
2022/01/12 13:06:06;;;;;;;23.95;13.98;;;25.70;35.80;;;;;;5044460;28;20029;-87
2022/01/12 13:08:32;;;;;;;22.38;14.48;;;25.90;34.10;;;;;;5048539;28;20033;-87
2022/01/12 13:11:08;;;;;;;22.90;14.00;;;24.00;35.60;;;;;;5048819;28;20039;-88
2022/01/12 13:13:34;;;;;;;27.83;15.50;;;25.90;35.10;;;;;;5050781;28;20037;-86
2022/01/12 13:16:00;;;;;;;25.17;14.68;;;27.70;34.10;;;;;;5043599;28;20086;-77
2022/01/12 13:18:26;;;;;;;22.88;14.88;;;27.00;33.50;;;;;;5039018;28;20029;-78
2022/01/12 13:21:10;;;;;;;22.35;14.05;;;26.90;33.10;;;;;;5046451;28;20029;-78
2022/01/12 13:23:36;;;;;;;;;;;28.10;33.40;;;;;;5047455;28;20479;-78
2022/01/12 13:26:04;;;;;;;25.90;15.57;;;28.70;33.00;;;;;;5050598;28;20257;-78
2022/01/12 13:28:30;;;;;;;23.55;14.93;;;28.90;32.70;;;;;;5048573;28;20028;-79
2022/01/12 13:30:59;;;;;;;26.65;15.60;;;29.30;32.30;;;;;;5049998;28;20602;-78
2022/01/12 13:33:31;;;;;;;25.88;15.27;;;28.90;32.20;;;;;;5043882;28;20029;-78
2022/01/12 13:35:58;;;;;;;25.83;15.07;;;29.20;32.60;;;;;;5046182;28;20033;-78
2022/01/12 13:38:31;;;;;;;25.23;14.43;;;28.50;32.80;;;;;;5047266;28;20040;-78
2022/01/12 13:41:12;;;;;;;25.60;14.57;;;28.40;31.90;;;;;;5049717;28;20082;-78
2022/01/12 13:43:40;;;;;;;25.73;15.55;;;29.00;32.40;;;;;;5047516;28;20629;-78
2022/01/12 13:46:18;;;;;;;22.65;14.10;;;28.50;31.90;;;;;;5046723;28;20583;-79
2022/01/12 13:49:38;;;;;;;24.70;14.40;;;28.10;32.10;;;;;;5046062;28;20029;-78
2022/01/12 13:51:51;;;;;;;25.42;14.93;;;28.10;32.60;;;;;;5035377;28;20074;-79
2022/01/12 13:54:17;;;;;;;23.80;14.93;;;27.70;31.60;;;;;;5054637;28;20556;-79